createdAt,value
2022-11-09T00:01:40.669Z,14.65
2022-11-09T00:04:08.235Z,15.27
2022-11-09T00:06:35.820Z,15.70
2022-11-09T00:09:07.824Z,15.05
2022-11-09T00:11:35.250Z,14.88
2022-11-09T00:14:01.748Z,15.15
2022-11-09T00:16:28.267Z,16.65
2022-11-09T00:18:56.329Z,17.58
2022-11-09T00:21:24.858Z,15.98
2022-11-09T00:23:52.881Z,15.93
2022-11-09T00:26:21.122Z,15.70
2022-11-09T00:28:48.295Z,15.00
2022-11-09T00:31:20.392Z,17.13
2022-11-09T00:33:55.607Z,15.35
2022-11-09T00:36:23.949Z,15.27
2022-11-09T00:38:56.284Z,16.30
2022-11-09T00:41:23.221Z,15.93
2022-11-09T00:43:50.922Z,16.70
2022-11-09T00:46:18.200Z,15.75
2022-11-09T00:48:45.992Z,16.45
2022-11-09T00:51:12.972Z,15.48
2022-11-09T00:53:39.613Z,15.40
2022-11-09T00:56:10.418Z,15.52
2022-11-09T00:58:38.643Z,16.58
2022-11-09T01:01:13.744Z,16.52
2022-11-09T01:03:40.908Z,16.05
2022-11-09T01:06:08.783Z,16.40
2022-11-09T01:08:36.150Z,15.52
2022-11-09T01:11:07.649Z,16.00
2022-11-09T01:13:35.335Z,16.90
2022-11-09T01:16:06.166Z,16.67
2022-11-09T01:18:33.118Z,15.73
2022-11-09T01:20:59.654Z,17.63
2022-11-09T01:23:26.686Z,15.77
2022-11-09T01:26:01.095Z,17.48
2022-11-09T01:28:28.322Z,17.25
2022-11-09T01:30:55.050Z,16.88
2022-11-09T01:33:22.024Z,15.50
2022-11-09T01:35:48.696Z,16.23
2022-11-09T01:38:15.219Z,15.77
2022-11-09T01:40:41.807Z,16.08
2022-11-09T01:43:17.247Z,16.20
2022-11-09T01:45:48.559Z,16.48
2022-11-09T01:48:24.441Z,16.00
2022-11-09T01:50:55.889Z,17.48
2022-11-09T01:53:35.200Z,17.92
2022-11-09T01:56:05.107Z,16.05
2022-11-09T01:58:55.372Z,15.68
2022-11-09T02:01:22.212Z,17.33
2022-11-09T02:03:54.972Z,15.68
2022-11-09T02:06:23.922Z,17.13
2022-11-09T02:08:53.803Z,16.75
2022-11-09T02:11:22.176Z,17.67
2022-11-09T02:13:53.810Z,16.95
2022-11-09T02:16:20.654Z,16.50
2022-11-09T02:18:56.070Z,17.10
2022-11-09T02:21:25.246Z,17.60
2022-11-09T02:23:51.915Z,18.60
2022-11-09T02:26:25.270Z,17.77
2022-11-09T02:28:54.356Z,19.10
2022-11-09T02:31:25.392Z,17.02
2022-11-09T02:33:51.863Z,19.33
2022-11-09T02:36:18.404Z,17.63
2022-11-09T02:38:45.189Z,18.15
2022-11-09T02:41:13.294Z,18.48
2022-11-09T02:43:40.748Z,20.30
2022-11-09T02:46:07.464Z,17.25
2022-11-09T02:48:34.057Z,18.05
2022-11-09T02:51:00.549Z,18.35
2022-11-09T02:53:27.169Z,18.85
2022-11-09T02:55:53.672Z,19.40
2022-11-09T02:58:20.215Z,18.48
2022-11-09T03:00:46.966Z,18.33
2022-11-09T03:03:13.722Z,18.55
2022-11-09T03:05:40.248Z,18.75
2022-11-09T03:08:06.901Z,17.80
2022-11-09T03:10:35.000Z,17.17
2022-11-09T03:13:01.551Z,17.58
2022-11-09T03:15:28.197Z,18.90
2022-11-09T03:17:54.822Z,19.27
2022-11-09T03:20:21.362Z,19.23
2022-11-09T03:22:47.907Z,19.30
2022-11-09T03:25:14.519Z,18.08
2022-11-09T03:27:41.043Z,18.67
2022-11-09T03:30:08.472Z,19.05
2022-11-09T03:32:35.019Z,17.30
2022-11-09T03:35:01.725Z,19.23
2022-11-09T03:37:28.283Z,20.27
2022-11-09T03:39:54.819Z,18.15
2022-11-09T03:42:21.458Z,19.10
2022-11-09T03:44:48.196Z,18.20
2022-11-09T03:47:14.713Z,19.70
2022-11-09T03:49:41.323Z,18.75
2022-11-09T03:52:07.865Z,18.45
2022-11-09T03:54:35.115Z,18.48
2022-11-09T03:57:01.614Z,19.67
2022-11-09T03:59:28.248Z,17.90
2022-11-09T04:01:54.920Z,19.70
2022-11-09T04:04:21.440Z,18.60
2022-11-09T04:06:48.082Z,19.20
2022-11-09T04:09:15.191Z,19.27
2022-11-09T04:11:41.887Z,19.45
2022-11-09T04:14:08.493Z,21.05
2022-11-09T04:16:35.031Z,19.50
2022-11-09T04:19:01.727Z,19.58
2022-11-09T04:21:28.499Z,19.17
2022-11-09T04:23:55.004Z,19.55
2022-11-09T04:26:21.567Z,18.90
2022-11-09T04:28:48.276Z,19.15
2022-11-09T04:31:15.140Z,18.95
2022-11-09T04:33:41.689Z,21.85
2022-11-09T04:36:09.168Z,18.98
2022-11-09T04:38:36.641Z,20.48
2022-11-09T04:41:04.728Z,18.35
2022-11-09T04:43:31.702Z,18.70
2022-11-09T04:46:02.851Z,20.08
2022-11-09T04:48:30.584Z,19.65
2022-11-09T04:51:04.895Z,19.58
2022-11-09T04:53:32.368Z,20.20
2022-11-09T04:55:59.242Z,18.70
2022-11-09T04:58:26.090Z,22.42
2022-11-09T05:00:53.815Z,18.80
2022-11-09T05:03:21.409Z,19.50
2022-11-09T05:05:48.814Z,19.63
2022-11-09T05:08:15.375Z,20.27
2022-11-09T05:10:41.984Z,19.65
2022-11-09T05:13:11.682Z,19.10
2022-11-09T05:15:38.681Z,21.73
2022-11-09T05:18:06.259Z,20.52
2022-11-09T05:20:33.447Z,22.45
2022-11-09T05:23:19.700Z,20.65
2022-11-09T05:25:47.172Z,20.85
2022-11-09T05:28:13.927Z,20.90
2022-11-09T05:30:40.427Z,20.95
2022-11-09T05:33:07.257Z,19.90
2022-11-09T05:35:34.287Z,20.95
2022-11-09T05:38:00.799Z,20.80
2022-11-09T05:40:27.503Z,20.90
2022-11-09T05:42:56.083Z,20.05
2022-11-09T05:48:10.149Z,21.52
2022-11-09T05:50:37.934Z,19.85
2022-11-09T05:53:04.604Z,20.30
2022-11-09T05:55:31.388Z,19.48
2022-11-09T05:57:58.094Z,22.10
2022-11-09T06:00:25.471Z,19.60
2022-11-09T06:02:52.287Z,20.30
2022-11-09T06:05:21.577Z,21.83
2022-11-09T06:07:48.316Z,19.27
2022-11-09T06:10:14.994Z,19.10
2022-11-09T06:12:41.503Z,20.08
2022-11-09T06:15:08.652Z,20.45
2022-11-09T06:17:35.359Z,20.17
2022-11-09T06:20:02.141Z,19.80
2022-11-09T06:22:28.670Z,18.20
2022-11-09T06:24:55.439Z,18.67
2022-11-09T06:27:21.931Z,18.92
2022-11-09T06:29:50.331Z,19.65
2022-11-09T06:32:17.073Z,19.50
2022-11-09T06:34:44.407Z,19.33
2022-11-09T06:37:10.944Z,18.92
2022-11-09T06:39:37.561Z,18.85
2022-11-09T06:42:04.197Z,20.17
2022-11-09T06:44:30.740Z,20.50
2022-11-09T06:46:57.386Z,20.30
2022-11-09T06:49:24.003Z,18.75
2022-11-09T06:51:50.598Z,20.33
2022-11-09T06:54:17.177Z,19.27
2022-11-09T06:56:43.730Z,20.23
2022-11-09T06:59:10.287Z,18.95
2022-11-09T07:01:37.792Z,18.45
2022-11-09T07:04:04.656Z,17.90
2022-11-09T07:06:31.258Z,18.08
2022-11-09T07:08:58.481Z,18.55
2022-11-09T07:11:25.086Z,18.63
2022-11-09T07:13:57.038Z,19.83
2022-11-09T07:16:24.282Z,18.73
2022-11-09T07:18:50.939Z,20.40
2022-11-09T07:21:17.485Z,18.30
2022-11-09T07:23:44.073Z,18.50
2022-11-09T07:26:10.607Z,20.15
2022-11-09T07:28:37.173Z,19.65
2022-11-09T07:31:03.921Z,19.52
2022-11-09T07:33:32.778Z,17.45
2022-11-09T07:36:00.967Z,19.02
2022-11-09T07:38:29.229Z,18.70
2022-11-09T07:40:59.288Z,18.63
2022-11-09T07:43:26.068Z,19.00
2022-11-09T07:45:53.234Z,19.27
2022-11-09T07:48:20.452Z,18.90
2022-11-09T07:50:47.120Z,18.25
2022-11-09T07:53:15.390Z,18.83
2022-11-09T07:55:42.383Z,20.70
2022-11-09T07:58:12.338Z,20.27
2022-11-09T08:00:41.091Z,20.35
2022-11-09T08:03:08.572Z,18.92
2022-11-09T08:05:35.855Z,17.92
2022-11-09T08:08:05.951Z,18.60
2022-11-09T08:10:34.514Z,18.52
2022-11-09T08:13:03.653Z,18.42
2022-11-09T08:15:30.508Z,18.33
2022-11-09T08:18:02.135Z,18.67
2022-11-09T08:20:29.743Z,19.15
2022-11-09T08:23:01.022Z,19.00
2022-11-09T08:25:31.207Z,19.52
2022-11-09T08:27:58.609Z,17.48
2022-11-09T08:30:25.303Z,18.27
2022-11-09T08:32:52.203Z,18.85
2022-11-09T08:35:21.602Z,19.80
2022-11-09T08:37:49.992Z,17.20
2022-11-09T08:40:20.823Z,18.90
2022-11-09T08:42:47.770Z,19.17
2022-11-09T08:45:15.085Z,18.13
2022-11-09T08:47:42.029Z,17.45
2022-11-09T08:50:10.227Z,17.38
2022-11-09T08:52:37.426Z,17.67
2022-11-09T08:55:04.629Z,17.65
2022-11-09T08:57:31.709Z,18.05
2022-11-09T08:59:58.358Z,18.92
2022-11-09T09:02:24.965Z,18.30
2022-11-09T09:04:51.638Z,18.27
2022-11-09T09:07:18.259Z,18.77
2022-11-09T09:09:44.856Z,18.70
2022-11-09T09:12:11.450Z,18.35
2022-11-09T09:14:38.100Z,18.05
2022-11-09T09:17:04.919Z,18.70
2022-11-09T09:19:32.138Z,19.35
2022-11-09T09:21:59.298Z,18.30
2022-11-09T09:24:26.982Z,17.80
2022-11-09T09:26:53.907Z,18.80
2022-11-09T09:29:20.606Z,17.90
2022-11-09T09:31:48.255Z,18.92
2022-11-09T09:34:15.477Z,19.50
2022-11-09T09:36:47.724Z,19.15
2022-11-09T09:39:15.072Z,19.13
2022-11-09T09:41:50.507Z,19.15
2022-11-09T09:44:40.335Z,18.60
2022-11-09T09:47:22.340Z,19.98
2022-11-09T09:50:03.012Z,19.35
2022-11-09T09:52:41.729Z,18.80
2022-11-09T09:55:14.497Z,18.48
2022-11-09T09:57:46.732Z,18.15
2022-11-09T10:00:21.968Z,18.30
2022-11-09T10:02:49.765Z,17.98
2022-11-09T10:05:17.500Z,17.95
2022-11-09T10:08:20.087Z,17.77
2022-11-09T10:11:09.358Z,16.92
2022-11-09T10:13:52.222Z,17.88
2022-11-09T10:16:37.524Z,18.92
2022-11-09T10:19:26.583Z,17.67
2022-11-09T10:22:31.596Z,17.90
2022-11-09T10:27:53.541Z,18.15
2022-11-09T10:30:22.715Z,18.90
2022-11-09T10:32:54.299Z,18.35
2022-11-09T10:35:35.247Z,18.27
2022-11-09T10:38:01.907Z,19.08
2022-11-09T10:40:45.654Z,17.58
2022-11-09T10:43:14.647Z,16.73
2022-11-09T10:45:43.164Z,17.27
2022-11-09T10:48:12.894Z,18.98
2022-11-09T10:50:54.380Z,17.58
2022-11-09T10:53:23.502Z,16.52
2022-11-09T10:55:56.995Z,17.08
2022-11-09T10:58:40.522Z,16.58
2022-11-09T11:01:23.056Z,17.75
2022-11-09T11:03:54.704Z,17.92
2022-11-09T11:06:21.165Z,16.70
2022-11-09T11:08:49.185Z,18.23
2022-11-09T11:11:37.675Z,18.10
2022-11-09T11:14:15.850Z,17.88
2022-11-09T11:16:46.464Z,18.13
2022-11-09T11:19:38.764Z,17.15
2022-11-09T11:22:08.490Z,18.30
2022-11-09T11:24:52.825Z,17.60
2022-11-09T11:27:32.431Z,18.08
2022-11-09T11:30:20.184Z,17.10
2022-11-09T11:32:50.425Z,17.48
2022-11-09T11:35:37.250Z,17.48
2022-11-09T11:38:15.967Z,17.00
2022-11-09T11:41:05.072Z,17.67
2022-11-09T11:43:49.870Z,18.00
2022-11-09T11:46:44.485Z,17.50
2022-11-09T11:49:30.556Z,18.25
2022-11-09T11:52:05.967Z,16.98
2022-11-09T11:55:07.936Z,17.95
2022-11-09T11:57:46.243Z,17.95
2022-11-09T12:00:19.012Z,18.90
2022-11-09T12:02:48.616Z,16.55
2022-11-09T12:05:34.116Z,19.23
2022-11-09T12:08:12.696Z,18.80
2022-11-09T12:10:45.130Z,18.92
2022-11-09T12:13:14.732Z,16.42
2022-11-09T12:15:51.249Z,17.88
2022-11-09T12:18:34.159Z,16.90
2022-11-09T12:21:19.044Z,16.92
2022-11-09T12:23:54.410Z,16.90
2022-11-09T12:27:10.829Z,16.77
2022-11-09T12:30:06.366Z,15.98
2022-11-09T12:35:25.695Z,16.65
2022-11-09T12:37:56.331Z,15.82
2022-11-09T12:40:30.409Z,17.80
2022-11-09T12:43:18.735Z,16.58
2022-11-09T12:45:45.845Z,16.55
2022-11-09T12:48:20.471Z,17.48
2022-11-09T12:50:47.726Z,15.77
2022-11-09T12:53:14.781Z,16.80
2022-11-09T12:55:52.027Z,17.13
2022-11-09T12:58:27.430Z,17.35
2022-11-09T13:00:56.847Z,17.65
2022-11-09T13:03:32.265Z,17.30
2022-11-09T13:06:26.279Z,18.02
2022-11-09T13:11:49.563Z,16.17
2022-11-09T13:14:22.257Z,16.55
2022-11-09T13:16:50.812Z,16.65
2022-11-09T13:19:35.825Z,17.55
2022-11-09T13:22:12.545Z,16.55
2022-11-09T13:25:02.298Z,17.92
2022-11-09T13:27:43.915Z,15.27
2022-11-09T13:30:25.455Z,16.05
2022-11-09T13:33:07.317Z,15.85
2022-11-09T13:35:43.182Z,16.90
2022-11-09T13:38:16.820Z,16.38
2022-11-09T13:40:55.231Z,15.52
2022-11-09T13:43:30.282Z,16.60
2022-11-09T13:46:05.773Z,17.08
2022-11-09T13:48:38.446Z,15.60
2022-11-09T13:51:20.819Z,16.42
2022-11-09T13:54:00.008Z,15.48
2022-11-09T13:56:28.469Z,16.88
2022-11-09T13:59:06.311Z,16.90
2022-11-09T14:01:38.310Z,17.13
2022-11-09T14:04:05.301Z,16.40
2022-11-09T14:06:33.291Z,16.80
2022-11-09T14:09:01.154Z,16.80
2022-11-09T14:11:36.783Z,17.38
2022-11-09T14:14:31.684Z,17.50
2022-11-09T14:17:14.922Z,17.50
2022-11-09T14:20:00.252Z,16.05
2022-11-09T14:22:31.662Z,17.08
2022-11-09T14:24:58.301Z,17.83
2022-11-09T14:27:25.019Z,19.27
2022-11-09T14:30:02.638Z,18.98
2022-11-09T14:32:35.862Z,18.45
2022-11-09T14:35:31.062Z,16.48
2022-11-09T14:38:00.119Z,17.30
2022-11-09T14:40:31.098Z,17.10
2022-11-09T14:43:00.284Z,17.50
2022-11-09T14:45:28.304Z,17.52
2022-11-09T14:47:58.680Z,16.38
2022-11-09T14:52:55.923Z,16.08
2022-11-09T14:55:24.272Z,20.45
2022-11-09T14:57:53.483Z,24.73
2022-11-09T15:00:30.997Z,17.67
2022-11-09T15:02:57.778Z,16.77
2022-11-09T15:05:39.883Z,17.00
2022-11-09T15:08:21.763Z,16.58
2022-11-09T15:10:51.557Z,17.10
2022-11-09T15:13:20.365Z,17.45
2022-11-09T15:15:52.249Z,18.15
2022-11-09T15:18:44.821Z,16.40
2022-11-09T15:21:26.817Z,16.83
2022-11-09T15:24:25.312Z,16.35
2022-11-09T15:26:53.280Z,17.05
2022-11-09T15:29:30.569Z,17.35
2022-11-09T15:32:07.119Z,16.30
2022-11-09T15:34:42.235Z,15.95
2022-11-09T15:37:31.361Z,18.00
2022-11-09T15:39:58.872Z,16.50
2022-11-09T15:42:26.833Z,17.00
2022-11-09T15:44:56.433Z,17.17
2022-11-09T15:47:37.958Z,17.40
2022-11-09T15:50:15.464Z,17.52
2022-11-09T15:52:44.442Z,18.02
2022-11-09T15:55:16.353Z,18.40
2022-11-09T15:57:43.934Z,19.13
2022-11-09T16:00:19.271Z,18.02
2022-11-09T16:02:47.522Z,17.40
2022-11-09T16:05:15.126Z,18.65
2022-11-09T16:07:53.102Z,23.13
2022-11-09T16:10:23.311Z,18.40
2022-11-09T16:12:53.414Z,18.88
2022-11-09T16:15:20.412Z,21.73
2022-11-09T16:17:49.711Z,18.95
2022-11-09T16:20:17.816Z,19.73
2022-11-09T16:22:44.730Z,20.40
2022-11-09T16:25:12.384Z,19.02
2022-11-09T16:27:55.278Z,18.70
2022-11-09T16:30:22.551Z,19.83
2022-11-09T16:32:49.611Z,19.10
2022-11-09T16:35:31.472Z,21.40
2022-11-09T16:37:59.766Z,20.77
2022-11-09T16:40:27.760Z,20.05
2022-11-09T16:42:54.672Z,19.40
2022-11-09T16:45:21.829Z,19.42
2022-11-09T16:47:56.807Z,18.40
2022-11-09T16:50:24.272Z,19.15
2022-11-09T16:52:52.194Z,20.30
2022-11-09T16:55:18.934Z,19.30
2022-11-09T16:57:46.318Z,19.58
2022-11-09T17:00:13.783Z,22.52
2022-11-09T17:02:40.611Z,19.23
2022-11-09T17:05:07.788Z,19.55
2022-11-09T17:07:42.095Z,19.92
2022-11-09T17:10:09.934Z,20.55
2022-11-09T17:12:36.544Z,19.38
2022-11-09T17:15:03.235Z,21.08
2022-11-09T17:17:30.028Z,19.55
2022-11-09T17:19:56.589Z,20.25
2022-11-09T17:22:23.303Z,20.85
2022-11-09T17:24:50.058Z,19.50
2022-11-09T17:27:16.577Z,20.23
2022-11-09T17:29:43.118Z,20.73
2022-11-09T17:32:10.228Z,21.83
2022-11-09T17:34:36.827Z,22.40
2022-11-09T17:37:05.100Z,20.90
2022-11-09T17:39:33.067Z,20.63
2022-11-09T17:41:59.716Z,22.38
2022-11-09T17:44:26.588Z,20.77
2022-11-09T17:46:53.258Z,21.63
2022-11-09T17:49:19.806Z,22.25
2022-11-09T17:51:46.316Z,21.08
2022-11-09T17:54:14.773Z,23.38
2022-11-09T17:56:41.456Z,20.88
2022-11-09T17:59:08.075Z,21.60
2022-11-09T18:01:41.042Z,21.67
2022-11-09T18:04:10.286Z,21.65
2022-11-09T18:06:38.007Z,21.80
2022-11-09T18:09:40.186Z,21.92
2022-11-09T18:11:51.777Z,22.65
2022-11-09T18:14:18.440Z,20.73
2022-11-09T18:16:45.379Z,21.23
2022-11-09T18:19:12.731Z,21.85
2022-11-09T18:21:39.298Z,21.45
2022-11-09T18:24:06.373Z,23.60
2022-11-09T18:26:33.210Z,21.52
2022-11-09T18:29:00.351Z,21.05
2022-11-09T18:31:27.154Z,20.65
2022-11-09T18:33:53.905Z,21.02
2022-11-09T18:36:21.741Z,22.38
2022-11-09T18:38:51.226Z,21.58
2022-11-09T18:41:24.236Z,21.40
2022-11-09T18:43:51.986Z,22.00
2022-11-09T18:46:20.061Z,20.92
2022-11-09T18:48:53.464Z,21.05
2022-11-09T18:51:20.507Z,20.73
2022-11-09T18:53:50.709Z,21.67
2022-11-09T18:56:24.115Z,22.30
2022-11-09T18:58:55.690Z,21.55
2022-11-09T19:01:25.074Z,20.38
2022-11-09T19:03:57.748Z,20.70
2022-11-09T19:06:26.232Z,20.92
2022-11-09T19:09:13.225Z,21.95
2022-11-09T19:11:39.828Z,21.23
2022-11-09T19:14:06.816Z,21.92
2022-11-09T19:16:33.412Z,21.80
2022-11-09T19:19:00.050Z,25.58
2022-11-09T19:21:42.682Z,22.20
2022-11-09T19:24:12.922Z,21.92
2022-11-09T19:26:39.956Z,20.80
2022-11-09T19:29:07.720Z,22.70
2022-11-09T19:31:34.899Z,22.85
2022-11-09T19:34:01.506Z,22.27
2022-11-09T19:36:31.455Z,22.38
2022-11-09T19:38:58.321Z,22.35
2022-11-09T19:41:25.608Z,23.02
2022-11-09T19:43:54.839Z,22.27
2022-11-09T19:46:21.965Z,23.20
2022-11-09T19:48:48.700Z,22.95
2022-11-09T19:51:16.941Z,23.25
2022-11-09T19:53:50.127Z,22.65
2022-11-09T19:56:18.356Z,22.88
2022-11-09T19:58:49.434Z,24.77
2022-11-09T20:01:16.386Z,22.75
2022-11-09T20:03:43.448Z,22.85
2022-11-09T20:06:09.987Z,22.70
2022-11-09T20:08:37.757Z,24.42
2022-11-09T20:11:08.971Z,22.55
2022-11-09T20:13:38.395Z,23.20
2022-11-09T20:16:07.785Z,23.67
2022-11-09T20:18:38.253Z,21.90
2022-11-09T20:23:33.726Z,22.10
2022-11-09T20:26:08.332Z,24.15
2022-11-09T20:28:34.950Z,23.85
2022-11-09T20:31:07.762Z,23.55
2022-11-09T20:33:34.411Z,24.88
2022-11-09T20:36:00.997Z,22.95
2022-11-09T20:38:27.812Z,23.60
2022-11-09T20:40:55.956Z,22.48
2022-11-09T20:43:23.422Z,24.45
2022-11-09T20:45:50.963Z,24.58
2022-11-09T20:48:38.557Z,24.55
2022-11-09T20:51:08.555Z,24.08
2022-11-09T20:53:35.719Z,23.80
2022-11-09T20:56:02.380Z,23.02
2022-11-09T20:58:30.031Z,24.73
2022-11-09T21:01:21.874Z,24.17
2022-11-09T21:03:51.127Z,22.98
2022-11-09T21:06:18.609Z,24.55
2022-11-09T21:08:50.754Z,24.88
2022-11-09T21:11:18.277Z,23.88
2022-11-09T21:13:51.090Z,23.63
2022-11-09T21:16:19.370Z,25.65
2022-11-09T21:18:46.126Z,28.00
2022-11-09T21:21:15.832Z,25.75
2022-11-09T21:24:01.451Z,26.73
2022-11-09T21:26:47.792Z,25.02
2022-11-09T21:29:35.367Z,27.02
2022-11-09T21:32:02.202Z,25.33
2022-11-09T21:34:35.417Z,23.55
2022-11-09T21:37:05.119Z,24.92
2022-11-09T21:39:32.154Z,27.58
2022-11-09T21:41:58.851Z,27.25
2022-11-09T21:44:27.603Z,25.40
2022-11-09T21:46:54.177Z,24.77
2022-11-09T21:49:20.715Z,25.60
2022-11-09T21:51:47.565Z,25.00
2022-11-09T21:54:14.375Z,24.25
2022-11-09T21:56:40.929Z,25.77
2022-11-09T21:59:08.036Z,25.17
2022-11-09T22:01:35.148Z,24.90
2022-11-09T22:04:01.997Z,23.70
2022-11-09T22:06:28.812Z,23.88
2022-11-09T22:08:55.492Z,24.42
2022-11-09T22:11:43.156Z,26.58
2022-11-09T22:14:32.721Z,24.92
2022-11-09T22:16:59.827Z,23.70
2022-11-09T22:19:45.915Z,24.33
2022-11-09T22:22:13.587Z,24.35
2022-11-09T22:24:40.290Z,25.73
2022-11-09T22:27:07.581Z,24.65
2022-11-09T22:29:34.314Z,27.38
2022-11-09T22:32:00.946Z,26.83
2022-11-09T22:34:27.815Z,26.20
2022-11-09T22:36:54.422Z,25.17
2022-11-09T22:39:21.193Z,25.92
2022-11-09T22:41:47.825Z,24.65
2022-11-09T22:44:14.368Z,26.00
2022-11-09T22:46:40.977Z,25.35
2022-11-09T22:49:08.886Z,25.33
2022-11-09T22:51:35.626Z,26.65
2022-11-09T22:54:02.217Z,25.65
2022-11-09T22:56:28.717Z,24.65
2022-11-09T22:58:55.319Z,26.90
2022-11-09T23:01:22.010Z,27.25
2022-11-09T23:03:48.715Z,27.67
2022-11-09T23:06:21.105Z,26.55
2022-11-09T23:08:48.882Z,26.98
2022-11-09T23:11:23.151Z,25.52
2022-11-09T23:13:51.858Z,25.58
2022-11-09T23:16:19.488Z,26.15
2022-11-09T23:18:56.251Z,24.88
2022-11-09T23:21:28.449Z,27.30
2022-11-09T23:24:03.894Z,25.90
2022-11-09T23:26:31.330Z,24.52
2022-11-09T23:28:58.145Z,25.45
2022-11-09T23:31:25.586Z,26.00
2022-11-09T23:33:54.604Z,24.40
2022-11-09T23:36:22.730Z,26.88
2022-11-09T23:38:49.845Z,23.88
2022-11-09T23:41:17.151Z,26.10
2022-11-09T23:43:48.717Z,24.73
2022-11-09T23:46:17.165Z,25.40
2022-11-09T23:48:43.854Z,24.75
2022-11-09T23:51:11.125Z,25.27
2022-11-09T23:53:38.084Z,25.33
2022-11-09T23:56:09.965Z,23.60
2022-11-09T23:58:37.417Z,24.50
